sensor_id;sensor_type;location;lat;lon;timestamp;pressure;altitude;pressure_sealevel;temperature
50206;BMP280;36098;48.390;10.856;2024-03-08T00:02:03;95948.34;;;16.31
50206;BMP280;36098;48.390;10.856;2024-03-08T00:04:28;95933.94;;;16.28
50206;BMP280;36098;48.390;10.856;2024-03-08T00:06:53;95941.78;;;16.28
50206;BMP280;36098;48.390;10.856;2024-03-08T00:09:18;95932.38;;;16.27
50206;BMP280;36098;48.390;10.856;2024-03-08T00:11:44;95939.41;;;16.27
50206;BMP280;36098;48.390;10.856;2024-03-08T00:14:09;95935.78;;;16.28
50206;BMP280;36098;48.390;10.856;2024-03-08T00:16:35;95938.38;;;16.28
50206;BMP280;36098;48.390;10.856;2024-03-08T00:19:03;95944.38;;;16.28
50206;BMP280;36098;48.390;10.856;2024-03-08T00:21:29;95934.41;;;16.25
50206;BMP280;36098;48.390;10.856;2024-03-08T00:23:57;95931.59;;;16.27
50206;BMP280;36098;48.390;10.856;2024-03-08T00:26:23;95920.38;;;16.26
50206;BMP280;36098;48.390;10.856;2024-03-08T00:28:48;95924.56;;;16.27
50206;BMP280;36098;48.390;10.856;2024-03-08T00:31:14;95914.38;;;16.26
50206;BMP280;36098;48.390;10.856;2024-03-08T00:33:42;95913.34;;;16.27
50206;BMP280;36098;48.390;10.856;2024-03-08T00:36:07;95909.16;;;16.26
50206;BMP280;36098;48.390;10.856;2024-03-08T00:38:32;95899.22;;;16.23
50206;BMP280;36098;48.390;10.856;2024-03-08T00:40:59;95905.19;;;16.23
50206;BMP280;36098;48.390;10.856;2024-03-08T00:43:24;95904.16;;;16.24
50206;BMP280;36098;48.390;10.856;2024-03-08T00:45:49;95909.84;;;16.21
50206;BMP280;36098;48.390;10.856;2024-03-08T00:48:15;95911.44;;;16.22
50206;BMP280;36098;48.390;10.856;2024-03-08T00:50:40;95902.50;;;16.18
50206;BMP280;36098;48.390;10.856;2024-03-08T00:53:05;95903.41;;;16.24
50206;BMP280;36098;48.390;10.856;2024-03-08T00:55:31;95904.41;;;16.23
50206;BMP280;36098;48.390;10.856;2024-03-08T00:57:56;95890.03;;;16.20
50206;BMP280;36098;48.390;10.856;2024-03-08T01:00:23;95889.56;;;16.23
50206;BMP280;36098;48.390;10.856;2024-03-08T01:02:49;95892.63;;;16.20
50206;BMP280;36098;48.390;10.856;2024-03-08T01:05:14;95888.44;;;16.19
50206;BMP280;36098;48.390;10.856;2024-03-08T01:07:39;95891.03;;;16.19
50206;BMP280;36098;48.390;10.856;2024-03-08T01:10:05;95898.66;;;16.21
50206;BMP280;36098;48.390;10.856;2024-03-08T01:12:34;95897.03;;;16.20
50206;BMP280;36098;48.390;10.856;2024-03-08T01:15:00;95884.81;;;16.20
50206;BMP280;36098;48.390;10.856;2024-03-08T01:17:25;95891.81;;;16.20
50206;BMP280;36098;48.390;10.856;2024-03-08T01:19:51;95874.84;;;16.17
50206;BMP280;36098;48.390;10.856;2024-03-08T01:22:16;95872.47;;;16.16
50206;BMP280;36098;48.390;10.856;2024-03-08T01:24:41;95869.84;;;16.16
50206;BMP280;36098;48.390;10.856;2024-03-08T01:27:07;95862.50;;;16.13
50206;BMP280;36098;48.390;10.856;2024-03-08T01:29:34;95867.81;;;16.18
50206;BMP280;36098;48.390;10.856;2024-03-08T01:31:59;95861.72;;;16.12
50206;BMP280;36098;48.390;10.856;2024-03-08T01:34:27;95859.91;;;16.13
50206;BMP280;36098;48.390;10.856;2024-03-08T01:36:53;95862.50;;;16.13
50206;BMP280;36098;48.390;10.856;2024-03-08T01:39:21;95848.94;;;16.11
50206;BMP280;36098;48.390;10.856;2024-03-08T01:41:47;95853.44;;;16.15
50206;BMP280;36098;48.390;10.856;2024-03-08T01:44:12;95848.16;;;16.10
50206;BMP280;36098;48.390;10.856;2024-03-08T01:46:43;95832.06;;;16.13
50206;BMP280;36098;48.390;10.856;2024-03-08T01:49:10;95830.47;;;16.12
50206;BMP280;36098;48.390;10.856;2024-03-08T01:51:35;95824.69;;;16.10
50206;BMP280;36098;48.390;10.856;2024-03-08T01:54:02;95835.69;;;16.12
50206;BMP280;36098;48.390;10.856;2024-03-08T01:56:28;95832.50;;;16.10
50206;BMP280;36098;48.390;10.856;2024-03-08T01:58:55;95821.06;;;16.11
50206;BMP280;36098;48.390;10.856;2024-03-08T02:01:20;95814.50;;;16.09
50206;BMP280;36098;48.390;10.856;2024-03-08T02:03:45;95816.28;;;16.08
50206;BMP280;36098;48.390;10.856;2024-03-08T02:06:12;95825.69;;;16.09
50206;BMP280;36098;48.390;10.856;2024-03-08T02:08:38;95817.09;;;16.09
50206;BMP280;36098;48.390;10.856;2024-03-08T02:11:04;95808.47;;;16.08
50206;BMP280;36098;48.390;10.856;2024-03-08T02:13:29;95807.16;;;16.06
50206;BMP280;36098;48.390;10.856;2024-03-08T02:15:59;95801.69;;;16.07
50206;BMP280;36098;48.390;10.856;2024-03-08T02:18:25;95804.53;;;16.06
50206;BMP280;36098;48.390;10.856;2024-03-08T02:20:58;95805.31;;;16.06
50206;BMP280;36098;48.390;10.856;2024-03-08T02:23:23;95800.09;;;16.06
50206;BMP280;36098;48.390;10.856;2024-03-08T02:25:50;95801.13;;;16.05
50206;BMP280;36098;48.390;10.856;2024-03-08T02:28:16;95790.16;;;16.03
50206;BMP280;36098;48.390;10.856;2024-03-08T02:30:44;95795.16;;;16.05
50206;BMP280;36098;48.390;10.856;2024-03-08T02:33:09;95788.09;;;16.05
50206;BMP280;36098;48.390;10.856;2024-03-08T02:35:35;95790.16;;;16.03
50206;BMP280;36098;48.390;10.856;2024-03-08T02:38:04;95788.56;;;16.02
50206;BMP280;36098;48.390;10.856;2024-03-08T02:40:30;95778.63;;;15.99
50206;BMP280;36098;48.390;10.856;2024-03-08T02:42:55;95785.97;;;16.02
50206;BMP280;36098;48.390;10.856;2024-03-08T02:45:20;95787.00;;;16.01
50206;BMP280;36098;48.390;10.856;2024-03-08T02:47:46;95793.78;;;16.02
50206;BMP280;36098;48.390;10.856;2024-03-08T02:50:11;95795.03;;;16.00
50206;BMP280;36098;48.390;10.856;2024-03-08T02:52:37;95788.81;;;16.01
50206;BMP280;36098;48.390;10.856;2024-03-08T02:55:02;95787.22;;;16.00
50206;BMP280;36098;48.390;10.856;2024-03-08T02:57:27;95791.66;;;15.99
50206;BMP280;36098;48.390;10.856;2024-03-08T02:59:53;95787.47;;;15.98
50206;BMP280;36098;48.390;10.856;2024-03-08T03:02:20;95789.03;;;15.99
50206;BMP280;36098;48.390;10.856;2024-03-08T03:04:46;95782.25;;;15.98
50206;BMP280;36098;48.390;10.856;2024-03-08T03:07:11;95771.75;;;15.93
50206;BMP280;36098;48.390;10.856;2024-03-08T03:09:37;95771.03;;;15.98
50206;BMP280;36098;48.390;10.856;2024-03-08T03:12:02;95770.25;;;15.97
50206;BMP280;36098;48.390;10.856;2024-03-08T03:14:27;95768.66;;;15.96
50206;BMP280;36098;48.390;10.856;2024-03-08T03:16:53;95769.44;;;15.97
50206;BMP280;36098;48.390;10.856;2024-03-08T03:19:19;95773.06;;;15.96
50206;BMP280;36098;48.390;10.856;2024-03-08T03:21:45;95768.13;;;15.94
50206;BMP280;36098;48.390;10.856;2024-03-08T03:24:11;95768.66;;;15.96
50206;BMP280;36098;48.390;10.856;2024-03-08T03:26:38;95766.28;;;15.95
50206;BMP280;36098;48.390;10.856;2024-03-08T03:29:07;95761.88;;;15.95
50206;BMP280;36098;48.390;10.856;2024-03-08T03:31:34;95764.50;;;15.95
50206;BMP280;36098;48.390;10.856;2024-03-08T03:33:59;95757.16;;;15.92
50206;BMP280;36098;48.390;10.856;2024-03-08T03:36:28;95762.34;;;15.92
50206;BMP280;36098;48.390;10.856;2024-03-08T03:38:53;95759.75;;;15.92
50206;BMP280;36098;48.390;10.856;2024-03-08T03:41:30;95762.34;;;15.92
50206;BMP280;36098;48.390;10.856;2024-03-08T03:43:55;95760.78;;;15.91
50206;BMP280;36098;48.390;10.856;2024-03-08T03:46:20;95753.94;;;15.90
50206;BMP280;36098;48.390;10.856;2024-03-08T03:48:46;95757.34;;;15.91
50206;BMP280;36098;48.390;10.856;2024-03-08T03:51:12;95755.56;;;15.91
50206;BMP280;36098;48.390;10.856;2024-03-08T03:53:37;95757.34;;;15.91
50206;BMP280;36098;48.390;10.856;2024-03-08T03:56:03;95747.16;;;15.89
50206;BMP280;36098;48.390;10.856;2024-03-08T03:58:32;95750.78;;;15.88
50206;BMP280;36098;48.390;10.856;2024-03-08T04:00:57;95750.22;;;15.86
50206;BMP280;36098;48.390;10.856;2024-03-08T04:03:22;95748.44;;;15.87
50206;BMP280;36098;48.390;10.856;2024-03-08T04:05:47;95750.78;;;15.88
50206;BMP280;36098;48.390;10.856;2024-03-08T04:08:13;95751.03;;;15.87
50206;BMP280;36098;48.390;10.856;2024-03-08T04:10:39;95749.94;;;15.83
50206;BMP280;36098;48.390;10.856;2024-03-08T04:13:06;95752.84;;;15.86
50206;BMP280;36098;48.390;10.856;2024-03-08T04:15:32;95755.69;;;15.85
50206;BMP280;36098;48.390;10.856;2024-03-08T04:17:57;95744.94;;;15.82
50206;BMP280;36098;48.390;10.856;2024-03-08T04:20:22;95748.09;;;15.83
50206;BMP280;36098;48.390;10.856;2024-03-08T04:22:47;95750.47;;;15.85
50206;BMP280;36098;48.390;10.856;2024-03-08T04:25:14;95751.72;;;15.82
50206;BMP280;36098;48.390;10.856;2024-03-08T04:27:40;95755.34;;;15.82
50206;BMP280;36098;48.390;10.856;2024-03-08T04:30:06;95749.38;;;15.81
50206;BMP280;36098;48.390;10.856;2024-03-08T04:32:34;95746.75;;;15.81
50206;BMP280;36098;48.390;10.856;2024-03-08T04:35:00;95747.53;;;15.82
50206;BMP280;36098;48.390;10.856;2024-03-08T04:37:27;95743.34;;;15.81
50206;BMP280;36098;48.390;10.856;2024-03-08T04:39:54;95739.94;;;15.80
50206;BMP280;36098;48.390;10.856;2024-03-08T04:42:20;95739.16;;;15.80
50206;BMP280;36098;48.390;10.856;2024-03-08T04:44:45;95736.56;;;15.80
50206;BMP280;36098;48.390;10.856;2024-03-08T04:47:11;95738.38;;;15.79
50206;BMP280;36098;48.390;10.856;2024-03-08T04:49:36;95742.53;;;15.80
50206;BMP280;36098;48.390;10.856;2024-03-08T04:52:03;95727.19;;;15.79
50206;BMP280;36098;48.390;10.856;2024-03-08T04:54:29;95728.19;;;15.78
50206;BMP280;36098;48.390;10.856;2024-03-08T04:56:54;95735.75;;;15.79
50206;BMP280;36098;48.390;10.856;2024-03-08T04:59:19;95730.25;;;15.76
50206;BMP280;36098;48.390;10.856;2024-03-08T05:01:45;95729.22;;;15.77
50206;BMP280;36098;48.390;10.856;2024-03-08T05:04:10;95725.59;;;15.78
50206;BMP280;36098;48.390;10.856;2024-03-08T05:06:35;95726.63;;;15.77
50206;BMP280;36098;48.390;10.856;2024-03-08T05:09:01;95725.59;;;15.78
50206;BMP280;36098;48.390;10.856;2024-03-08T05:11:45;95720.94;;;15.80
50206;BMP280;36098;48.390;10.856;2024-03-08T05:14:11;95730.91;;;15.82
50206;BMP280;36098;48.390;10.856;2024-03-08T05:16:41;95727.59;;;15.87
50206;BMP280;36098;48.390;10.856;2024-03-08T05:19:07;95722.41;;;15.87
50206;BMP280;36098;48.390;10.856;2024-03-08T05:21:32;95721.59;;;15.86
50206;BMP280;36098;48.390;10.856;2024-03-08T05:23:58;95716.06;;;15.83
50206;BMP280;36098;48.390;10.856;2024-03-08T05:26:23;95713.00;;;15.86
50206;BMP280;36098;48.390;10.856;2024-03-08T05:28:48;95723.50;;;15.91
50206;BMP280;36098;48.390;10.856;2024-03-08T05:31:20;95720.69;;;15.92
50206;BMP280;36098;48.390;10.856;2024-03-08T05:33:49;95719.50;;;16.00
50206;BMP280;36098;48.390;10.856;2024-03-08T05:36:15;95723.09;;;16.10
50206;BMP280;36098;48.390;10.856;2024-03-08T05:38:43;95712.72;;;16.27
50206;BMP280;36098;48.390;10.856;2024-03-08T05:41:09;95716.72;;;16.46
50206;BMP280;36098;48.390;10.856;2024-03-08T05:43:34;95720.00;;;16.41
50206;BMP280;36098;48.390;10.856;2024-03-08T05:45:59;95718.28;;;16.47
50206;BMP280;36098;48.390;10.856;2024-03-08T05:48:24;95719.63;;;16.49
50206;BMP280;36098;48.390;10.856;2024-03-08T05:50:50;95713.16;;;16.52
50206;BMP280;36098;48.390;10.856;2024-03-08T05:53:15;95716.16;;;16.60
50206;BMP280;36098;48.390;10.856;2024-03-08T05:55:41;95712.78;;;16.60
50206;BMP280;36098;48.390;10.856;2024-03-08T05:58:06;95711.97;;;16.59
50206;BMP280;36098;48.390;10.856;2024-03-08T06:00:33;95716.22;;;16.65
50206;BMP280;36098;48.390;10.856;2024-03-08T06:02:59;95710.53;;;16.68
50206;BMP280;36098;48.390;10.856;2024-03-08T06:05:24;95701.16;;;16.67
50206;BMP280;36098;48.390;10.856;2024-03-08T06:07:50;95702.09;;;16.61
50206;BMP280;36098;48.390;10.856;2024-03-08T06:10:18;95695.38;;;16.49
50206;BMP280;36098;48.390;10.856;2024-03-08T06:12:43;95697.91;;;16.44
50206;BMP280;36098;48.390;10.856;2024-03-08T06:15:10;95701.00;;;16.41
50206;BMP280;36098;48.390;10.856;2024-03-08T06:17:41;95697.59;;;16.40
50206;BMP280;36098;48.390;10.856;2024-03-08T06:20:06;95699.16;;;16.41
50206;BMP280;36098;48.390;10.856;2024-03-08T06:22:39;95694.97;;;16.40
50206;BMP280;36098;48.390;10.856;2024-03-08T06:25:08;95693.94;;;16.41
50206;BMP280;36098;48.390;10.856;2024-03-08T06:27:35;95696.56;;;16.41
50206;BMP280;36098;48.390;10.856;2024-03-08T06:30:01;95701.22;;;16.39
50206;BMP280;36098;48.390;10.856;2024-03-08T06:32:26;95710.63;;;16.40
50206;BMP280;36098;48.390;10.856;2024-03-08T06:34:51;95710.63;;;16.40
50206;BMP280;36098;48.390;10.856;2024-03-08T06:37:17;95702.81;;;16.40
50206;BMP280;36098;48.390;10.856;2024-03-08T06:39:49;95701.22;;;16.39
50206;BMP280;36098;48.390;10.856;2024-03-08T06:42:16;95701.22;;;16.39
50206;BMP280;36098;48.390;10.856;2024-03-08T06:44:41;95698.63;;;16.39
50206;BMP280;36098;48.390;10.856;2024-03-08T06:47:14;95705.41;;;16.40
50206;BMP280;36098;48.390;10.856;2024-03-08T06:49:40;95707.00;;;16.41
50206;BMP280;36098;48.390;10.856;2024-03-08T06:52:05;95709.03;;;16.39
50206;BMP280;36098;48.390;10.856;2024-03-08T06:54:31;95704.38;;;16.41
50206;BMP280;36098;48.390;10.856;2024-03-08T06:56:57;95700.19;;;16.40
50206;BMP280;36098;48.390;10.856;2024-03-08T06:59:22;95702.25;;;16.38
50206;BMP280;36098;48.390;10.856;2024-03-08T07:01:48;95700.66;;;16.37
50206;BMP280;36098;48.390;10.856;2024-03-08T07:04:13;95705.63;;;16.39
50206;BMP280;36098;48.390;10.856;2024-03-08T07:06:38;95698.06;;;16.37
50206;BMP280;36098;48.390;10.856;2024-03-08T07:09:05;95699.88;;;16.37
50206;BMP280;36098;48.390;10.856;2024-03-08T07:11:31;95702.47;;;16.37
50206;BMP280;36098;48.390;10.856;2024-03-08T07:13:56;95686.28;;;16.35
50206;BMP280;36098;48.390;10.856;2024-03-08T07:16:23;95698.06;;;16.37
50206;BMP280;36098;48.390;10.856;2024-03-08T07:18:49;95689.69;;;16.35
50206;BMP280;36098;48.390;10.856;2024-03-08T07:21:17;95683.69;;;16.35
50206;BMP280;36098;48.390;10.856;2024-03-08T07:23:43;95694.31;;;16.33
50206;BMP280;36098;48.390;10.856;2024-03-08T07:26:20;95688.13;;;16.34
50206;BMP280;36098;48.390;10.856;2024-03-08T07:28:45;95691.28;;;16.36
50206;BMP280;36098;48.390;10.856;2024-03-08T07:31:10;95674.50;;;16.32
50206;BMP280;36098;48.390;10.856;2024-03-08T07:33:41;95680.28;;;16.34
50206;BMP280;36098;48.390;10.856;2024-03-08T07:36:07;95673.69;;;16.32
50206;BMP280;36098;48.390;10.856;2024-03-08T07:38:33;95685.94;;;16.31
50206;BMP280;36098;48.390;10.856;2024-03-08T07:40:58;95683.69;;;16.35
50206;BMP280;36098;48.390;10.856;2024-03-08T07:43:24;95687.63;;;16.37
50206;BMP280;36098;48.390;10.856;2024-03-08T07:45:50;95686.84;;;16.37
50206;BMP280;36098;48.390;10.856;2024-03-08T07:48:18;95682.91;;;16.34
50206;BMP280;36098;48.390;10.856;2024-03-08T07:50:43;95680.28;;;16.34
50206;BMP280;36098;48.390;10.856;2024-03-08T07:53:08;95677.69;;;16.34
50206;BMP280;36098;48.390;10.856;2024-03-08T07:55:34;95688.13;;;16.34
50206;BMP280;36098;48.390;10.856;2024-03-08T07:58:01;95675.28;;;16.33
50206;BMP280;36098;48.390;10.856;2024-03-08T08:00:26;95672.47;;;16.34
50206;BMP280;36098;48.390;10.856;2024-03-08T08:02:53;95668.47;;;16.32
50206;BMP280;36098;48.390;10.856;2024-03-08T08:05:18;95658.53;;;16.29
50206;BMP280;36098;48.390;10.856;2024-03-08T08:07:44;95668.47;;;16.32
50206;BMP280;36098;48.390;10.856;2024-03-08T08:10:12;95667.72;;;16.31
50206;BMP280;36098;48.390;10.856;2024-03-08T08:12:43;95662.50;;;16.31
50206;BMP280;36098;48.390;10.856;2024-03-08T08:15:09;95659.31;;;16.29
50206;BMP280;36098;48.390;10.856;2024-03-08T08:17:34;95657.72;;;16.28
50206;BMP280;36098;48.390;10.856;2024-03-08T08:20:00;95666.13;;;16.30
50206;BMP280;36098;48.390;10.856;2024-03-08T08:22:25;95656.97;;;16.28
50206;BMP280;36098;48.390;10.856;2024-03-08T08:24:50;95660.91;;;16.30
50206;BMP280;36098;48.390;10.856;2024-03-08T08:27:17;95662.72;;;16.30
50206;BMP280;36098;48.390;10.856;2024-03-08T08:29:42;95656.16;;;16.27
50206;BMP280;36098;48.390;10.856;2024-03-08T08:32:08;95657.72;;;16.28
50206;BMP280;36098;48.390;10.856;2024-03-08T08:34:33;95659.56;;;16.28
50206;BMP280;36098;48.390;10.856;2024-03-08T08:36:59;95656.16;;;16.27
50206;BMP280;36098;48.390;10.856;2024-03-08T08:39:24;95639.75;;;16.27
50206;BMP280;36098;48.390;10.856;2024-03-08T08:41:51;95644.97;;;16.27
50206;BMP280;36098;48.390;10.856;2024-03-08T08:44:16;95632.41;;;16.24
50206;BMP280;36098;48.390;10.856;2024-03-08T08:46:41;95645.19;;;16.25
50206;BMP280;36098;48.390;10.856;2024-03-08T08:49:07;95643.38;;;16.26
50206;BMP280;36098;48.390;10.856;2024-03-08T08:51:36;95633.19;;;16.24
50206;BMP280;36098;48.390;10.856;2024-03-08T08:54:06;95635.78;;;16.24
50206;BMP280;36098;48.390;10.856;2024-03-08T08:56:35;95632.16;;;16.25
50206;BMP280;36098;48.390;10.856;2024-03-08T08:59:01;95629.81;;;16.24
50206;BMP280;36098;48.390;10.856;2024-03-08T09:01:26;95624.03;;;16.22
50206;BMP280;36098;48.390;10.856;2024-03-08T09:03:52;95629.25;;;16.22
50206;BMP280;36098;48.390;10.856;2024-03-08T09:06:17;95624.03;;;16.22
50206;BMP280;36098;48.390;10.856;2024-03-08T09:08:43;95623.78;;;16.23
50206;BMP280;36098;48.390;10.856;2024-03-08T09:11:11;95617.00;;;16.22
50206;BMP280;36098;48.390;10.856;2024-03-08T09:13:37;95619.84;;;16.21
50206;BMP280;36098;48.390;10.856;2024-03-08T09:16:03;95615.41;;;16.21
50206;BMP280;36098;48.390;10.856;2024-03-08T09:18:30;95608.63;;;16.20
50206;BMP280;36098;48.390;10.856;2024-03-08T09:20:55;95613.84;;;16.20
50206;BMP280;36098;48.390;10.856;2024-03-08T09:23:21;95609.66;;;16.19
50206;BMP280;36098;48.390;10.856;2024-03-08T09:25:46;95603.91;;;16.17
50206;BMP280;36098;48.390;10.856;2024-03-08T09:28:11;95603.66;;;16.19
50206;BMP280;36098;48.390;10.856;2024-03-08T09:30:38;95610.22;;;16.21
50206;BMP280;36098;48.390;10.856;2024-03-08T09:33:04;95614.66;;;16.21
50206;BMP280;36098;48.390;10.856;2024-03-08T09:35:29;95617.47;;;16.19
50206;BMP280;36098;48.390;10.856;2024-03-08T09:37:55;95611.47;;;16.19
50206;BMP280;36098;48.390;10.856;2024-03-08T09:40:21;95614.88;;;16.19
50206;BMP280;36098;48.390;10.856;2024-03-08T09:42:49;95605.47;;;16.18
50206;BMP280;36098;48.390;10.856;2024-03-08T09:45:14;95612.25;;;16.19
50206;BMP280;36098;48.390;10.856;2024-03-08T09:47:41;95608.31;;;16.17
50206;BMP280;36098;48.390;10.856;2024-03-08T09:50:07;95606.50;;;16.17
50206;BMP280;36098;48.390;10.856;2024-03-08T09:52:36;95603.91;;;16.17
50206;BMP280;36098;48.390;10.856;2024-03-08T09:55:04;95599.47;;;16.18
50206;BMP280;36098;48.390;10.856;2024-03-08T09:57:31;95605.97;;;16.15
50206;BMP280;36098;48.390;10.856;2024-03-08T09:59:57;95597.09;;;16.16
50206;BMP280;36098;48.390;10.856;2024-03-08T10:02:22;95599.94;;;16.15
50206;BMP280;36098;48.390;10.856;2024-03-08T10:04:48;95591.91;;;16.16
50206;BMP280;36098;48.390;10.856;2024-03-08T10:07:13;95596.31;;;16.16
50206;BMP280;36098;48.390;10.856;2024-03-08T10:09:38;95589.53;;;16.15
50206;BMP280;36098;48.390;10.856;2024-03-08T10:12:04;95589.78;;;16.13
50206;BMP280;36098;48.390;10.856;2024-03-08T10:14:30;95585.34;;;16.14
50206;BMP280;36098;48.390;10.856;2024-03-08T10:16:57;95585.34;;;16.14
50206;BMP280;36098;48.390;10.856;2024-03-08T10:19:25;95579.91;;;16.15
50206;BMP280;36098;48.390;10.856;2024-03-08T10:21:50;95579.66;;;16.17
50206;BMP280;36098;48.390;10.856;2024-03-08T10:24:19;95582.59;;;16.20
50206;BMP280;36098;48.390;10.856;2024-03-08T10:26:44;95568.53;;;16.21
50206;BMP280;36098;48.390;10.856;2024-03-08T10:29:10;95570.09;;;16.22
50206;BMP280;36098;48.390;10.856;2024-03-08T10:31:35;95575.63;;;16.26
50206;BMP280;36098;48.390;10.856;2024-03-08T10:34:01;95563.16;;;16.28
50206;BMP280;36098;48.390;10.856;2024-03-08T10:36:28;95569.47;;;16.32
50206;BMP280;36098;48.390;10.856;2024-03-08T10:38:55;95566.84;;;16.32
50206;BMP280;36098;48.390;10.856;2024-03-08T10:41:24;95561.41;;;16.33
50206;BMP280;36098;48.390;10.856;2024-03-08T10:49:25;95560.72;;;16.38
50206;BMP280;36098;48.390;10.856;2024-03-08T10:51:52;95555.75;;;16.36
50206;BMP280;36098;48.390;10.856;2024-03-08T10:54:19;95561.53;;;16.38
50206;BMP280;36098;48.390;10.856;2024-03-08T10:56:48;95556.84;;;16.40
50206;BMP280;36098;48.390;10.856;2024-03-08T10:59:14;95558.22;;;16.43
50206;BMP280;36098;48.390;10.856;2024-03-08T11:01:40;95539.47;;;16.46
50206;BMP280;36098;48.390;10.856;2024-03-08T11:04:05;95560.63;;;16.49
50206;BMP280;36098;48.390;10.856;2024-03-08T11:09:03;95545.31;;;16.53
50206;BMP280;36098;48.390;10.856;2024-03-08T11:11:32;95539.38;;;16.57
50206;BMP280;36098;48.390;10.856;2024-03-08T11:14:00;95534.47;;;16.61
50206;BMP280;36098;48.390;10.856;2024-03-08T11:18:59;95519.13;;;16.64
50206;BMP280;36098;48.390;10.856;2024-03-08T11:21:29;95514.00;;;16.69
50206;BMP280;36098;48.390;10.856;2024-03-08T11:24:00;95515.09;;;16.73
50206;BMP280;36098;48.390;10.856;2024-03-08T11:26:26;95511.69;;;16.73
50206;BMP280;36098;48.390;10.856;2024-03-08T11:28:51;95510.97;;;16.77
50206;BMP280;36098;48.390;10.856;2024-03-08T11:33:46;95506.34;;;16.84
50206;BMP280;36098;48.390;10.856;2024-03-08T11:36:20;95505.38;;;16.90
50206;BMP280;36098;48.390;10.856;2024-03-08T11:38:47;95494.97;;;16.90
50206;BMP280;36098;48.390;10.856;2024-03-08T11:41:23;95491.59;;;16.95
50206;BMP280;36098;48.390;10.856;2024-03-08T11:43:52;95479.09;;;16.97
50206;BMP280;36098;48.390;10.856;2024-03-08T11:46:26;95477.06;;;16.99
50206;BMP280;36098;48.390;10.856;2024-03-08T11:48:54;95476.06;;;17.05
50206;BMP280;36098;48.390;10.856;2024-03-08T11:51:21;95474.78;;;17.07
50206;BMP280;36098;48.390;10.856;2024-03-08T11:53:51;95472.72;;;17.09
50206;BMP280;36098;48.390;10.856;2024-03-08T11:56:17;95469.91;;;17.16
50206;BMP280;36098;48.390;10.856;2024-03-08T11:58:53;95469.19;;;17.20
50206;BMP280;36098;48.390;10.856;2024-03-08T12:01:22;95460.31;;;17.21
50206;BMP280;36098;48.390;10.856;2024-03-08T12:03:58;95454.31;;;17.21
50206;BMP280;36098;48.390;10.856;2024-03-08T12:06:24;95454.38;;;17.26
50206;BMP280;36098;48.390;10.856;2024-03-08T12:08:49;95453.31;;;17.27
50206;BMP280;36098;48.390;10.856;2024-03-08T12:11:17;95451.56;;;17.32
50206;BMP280;36098;48.390;10.856;2024-03-08T12:13:44;95447.44;;;17.36
50206;BMP280;36098;48.390;10.856;2024-03-08T12:16:11;95451.13;;;17.40
50206;BMP280;36098;48.390;10.856;2024-03-08T12:18:37;95442.25;;;17.41
50206;BMP280;36098;48.390;10.856;2024-03-08T12:21:06;95447.53;;;17.46
50206;BMP280;36098;48.390;10.856;2024-03-08T12:23:36;95439.75;;;17.51
50206;BMP280;36098;48.390;10.856;2024-03-08T12:26:15;95430.09;;;17.52
50206;BMP280;36098;48.390;10.856;2024-03-08T12:28:42;95432.72;;;17.57
50206;BMP280;36098;48.390;10.856;2024-03-08T12:31:11;95430.94;;;17.62
50206;BMP280;36098;48.390;10.856;2024-03-08T12:33:46;95426.75;;;17.61
50206;BMP280;36098;48.390;10.856;2024-03-08T12:36:15;95426.78;;;17.66
50206;BMP280;36098;48.390;10.856;2024-03-08T12:38:43;95428.94;;;17.69
50206;BMP280;36098;48.390;10.856;2024-03-08T12:41:09;95413.81;;;17.71
50206;BMP280;36098;48.390;10.856;2024-03-08T12:43:34;95407.28;;;17.73
50206;BMP280;36098;48.390;10.856;2024-03-08T12:46:00;95408.38;;;17.77
50206;BMP280;36098;48.390;10.856;2024-03-08T12:48:25;95407.06;;;17.80
50206;BMP280;36098;48.390;10.856;2024-03-08T12:50:50;95398.47;;;17.79
50206;BMP280;36098;48.390;10.856;2024-03-08T12:53:17;95401.34;;;17.83
50206;BMP280;36098;48.390;10.856;2024-03-08T12:55:42;95397.69;;;17.84
50206;BMP280;36098;48.390;10.856;2024-03-08T12:58:08;95388.28;;;17.83
50206;BMP280;36098;48.390;10.856;2024-03-08T13:00:34;95389.09;;;17.88
50206;BMP280;36098;48.390;10.856;2024-03-08T13:03:02;95382.63;;;17.96
50206;BMP280;36098;48.390;10.856;2024-03-08T13:05:28;95376.84;;;17.94
50206;BMP280;36098;48.390;10.856;2024-03-08T13:07:53;95366.97;;;18.01
50206;BMP280;36098;48.390;10.856;2024-03-08T13:10:20;95368.03;;;18.05
50206;BMP280;36098;48.390;10.856;2024-03-08T13:12:45;95373.25;;;18.05
50206;BMP280;36098;48.390;10.856;2024-03-08T13:15:11;95361.81;;;18.11
50206;BMP280;36098;48.390;10.856;2024-03-08T13:17:40;95346.91;;;18.11
50206;BMP280;36098;48.390;10.856;2024-03-08T13:20:08;95352.13;;;18.11
50206;BMP280;36098;48.390;10.856;2024-03-08T13:22:33;95356.06;;;18.19
50206;BMP280;36098;48.390;10.856;2024-03-08T13:24:59;95351.91;;;18.23
50206;BMP280;36098;48.390;10.856;2024-03-08T13:27:29;95342.50;;;18.22
50206;BMP280;36098;48.390;10.856;2024-03-08T13:29:54;95336.00;;;18.24
50206;BMP280;36098;48.390;10.856;2024-03-08T13:32:20;95329.50;;;18.27
50206;BMP280;36098;48.390;10.856;2024-03-08T13:34:47;95331.06;;;18.28
50206;BMP280;36098;48.390;10.856;2024-03-08T13:37:12;95326.38;;;18.30
50206;BMP280;36098;48.390;10.856;2024-03-08T13:39:41;95320.63;;;18.33
50206;BMP280;36098;48.390;10.856;2024-03-08T13:42:14;95316.44;;;18.32
50206;BMP280;36098;48.390;10.856;2024-03-08T13:44:48;95312.03;;;18.37
50206;BMP280;36098;48.390;10.856;2024-03-08T13:47:17;95327.97;;;18.41
50206;BMP280;36098;48.390;10.856;2024-03-08T13:49:42;95319.13;;;18.47
50206;BMP280;36098;48.390;10.856;2024-03-08T13:52:09;95306.28;;;18.45
50206;BMP280;36098;48.390;10.856;2024-03-08T13:54:35;95308.13;;;18.50
50206;BMP280;36098;48.390;10.856;2024-03-08T13:57:01;95303.16;;;18.48
50206;BMP280;36098;48.390;10.856;2024-03-08T13:59:30;95303.97;;;18.54
50206;BMP280;36098;48.390;10.856;2024-03-08T14:01:58;95299.50;;;18.54
50206;BMP280;36098;48.390;10.856;2024-03-08T14:04:24;95307.63;;;18.58
50206;BMP280;36098;48.390;10.856;2024-03-08T14:06:51;95296.41;;;18.57